sensor_id;sensor_type;location;lat;lon;timestamp;P1;durP1;ratioP1;P2;durP2;ratioP2
74064;SDS011;62421;51.412;5.432;2023-08-06T00:00:30;6.90;;;2.55;;
74064;SDS011;62421;51.412;5.432;2023-08-06T00:02:55;8.03;;;3.47;;
74064;SDS011;62421;51.412;5.432;2023-08-06T00:05:20;8.20;;;2.97;;
74064;SDS011;62421;51.412;5.432;2023-08-06T00:07:49;6.33;;;3.00;;
74064;SDS011;62421;51.412;5.432;2023-08-06T00:10:15;5.78;;;2.55;;
74064;SDS011;62421;51.412;5.432;2023-08-06T00:12:42;5.75;;;2.95;;
74064;SDS011;62421;51.412;5.432;2023-08-06T00:15:08;5.97;;;2.78;;
74064;SDS011;62421;51.412;5.432;2023-08-06T00:17:34;8.57;;;2.93;;
74064;SDS011;62421;51.412;5.432;2023-08-06T00:19:59;5.63;;;2.95;;
74064;SDS011;62421;51.412;5.432;2023-08-06T00:22:32;6.75;;;2.70;;
74064;SDS011;62421;51.412;5.432;2023-08-06T00:24:58;5.77;;;2.57;;
74064;SDS011;62421;51.412;5.432;2023-08-06T00:27:23;6.70;;;2.88;;
74064;SDS011;62421;51.412;5.432;2023-08-06T00:29:49;6.90;;;2.60;;
74064;SDS011;62421;51.412;5.432;2023-08-06T00:32:14;5.83;;;2.80;;
74064;SDS011;62421;51.412;5.432;2023-08-06T00:34:39;6.50;;;2.60;;
74064;SDS011;62421;51.412;5.432;2023-08-06T00:37:05;7.77;;;2.80;;
74064;SDS011;62421;51.412;5.432;2023-08-06T00:39:30;4.03;;;2.13;;
74064;SDS011;62421;51.412;5.432;2023-08-06T00:41:55;6.37;;;2.53;;
74064;SDS011;62421;51.412;5.432;2023-08-06T00:44:21;6.53;;;2.50;;
74064;SDS011;62421;51.412;5.432;2023-08-06T00:46:46;5.38;;;2.40;;
74064;SDS011;62421;51.412;5.432;2023-08-06T00:49:12;4.77;;;2.73;;
74064;SDS011;62421;51.412;5.432;2023-08-06T00:51:37;9.23;;;3.67;;
74064;SDS011;62421;51.412;5.432;2023-08-06T00:54:03;6.93;;;3.08;;
74064;SDS011;62421;51.412;5.432;2023-08-06T00:56:28;6.60;;;3.05;;
74064;SDS011;62421;51.412;5.432;2023-08-06T00:58:54;12.27;;;3.27;;
74064;SDS011;62421;51.412;5.432;2023-08-06T01:01:20;8.35;;;2.63;;
74064;SDS011;62421;51.412;5.432;2023-08-06T01:03:46;5.80;;;2.70;;
74064;SDS011;62421;51.412;5.432;2023-08-06T01:06:11;8.55;;;2.70;;
74064;SDS011;62421;51.412;5.432;2023-08-06T01:11:33;4.67;;;2.00;;
74064;SDS011;62421;51.412;5.432;2023-08-06T01:14:47;7.10;;;2.20;;
74064;SDS011;62421;51.412;5.432;2023-08-06T01:17:25;5.60;;;2.67;;
74064;SDS011;62421;51.412;5.432;2023-08-06T01:19:52;6.97;;;2.70;;
74064;SDS011;62421;51.412;5.432;2023-08-06T01:22:17;6.70;;;2.53;;
74064;SDS011;62421;51.412;5.432;2023-08-06T01:24:43;7.13;;;3.20;;
74064;SDS011;62421;51.412;5.432;2023-08-06T01:27:17;7.10;;;2.33;;
74064;SDS011;62421;51.412;5.432;2023-08-06T01:29:56;5.78;;;2.50;;
74064;SDS011;62421;51.412;5.432;2023-08-06T01:32:27;5.35;;;2.60;;
74064;SDS011;62421;51.412;5.432;2023-08-06T01:34:56;6.70;;;2.85;;
74064;SDS011;62421;51.412;5.432;2023-08-06T01:37:25;8.60;;;2.50;;
74064;SDS011;62421;51.412;5.432;2023-08-06T01:39:50;10.82;;;2.50;;
74064;SDS011;62421;51.412;5.432;2023-08-06T01:42:15;7.27;;;2.97;;
74064;SDS011;62421;51.412;5.432;2023-08-06T01:44:41;7.07;;;2.40;;
74064;SDS011;62421;51.412;5.432;2023-08-06T01:47:06;6.53;;;2.17;;
74064;SDS011;62421;51.412;5.432;2023-08-06T01:49:31;8.03;;;2.17;;
74064;SDS011;62421;51.412;5.432;2023-08-06T01:51:57;9.47;;;2.50;;
74064;SDS011;62421;51.412;5.432;2023-08-06T01:54:22;8.20;;;2.07;;
74064;SDS011;62421;51.412;5.432;2023-08-06T01:56:47;7.17;;;2.17;;
74064;SDS011;62421;51.412;5.432;2023-08-06T01:59:13;5.90;;;1.67;;
74064;SDS011;62421;51.412;5.432;2023-08-06T02:01:38;5.90;;;2.22;;
74064;SDS011;62421;51.412;5.432;2023-08-06T02:04:03;7.97;;;2.20;;
74064;SDS011;62421;51.412;5.432;2023-08-06T02:06:29;6.17;;;1.93;;
74064;SDS011;62421;51.412;5.432;2023-08-06T02:08:54;3.80;;;1.80;;
74064;SDS011;62421;51.412;5.432;2023-08-06T02:11:19;4.97;;;2.17;;
74064;SDS011;62421;51.412;5.432;2023-08-06T02:13:45;6.60;;;1.73;;
74064;SDS011;62421;51.412;5.432;2023-08-06T02:16:11;6.80;;;2.28;;
74064;SDS011;62421;51.412;5.432;2023-08-06T02:18:36;4.87;;;2.00;;
74064;SDS011;62421;51.412;5.432;2023-08-06T02:21:02;5.37;;;2.17;;
74064;SDS011;62421;51.412;5.432;2023-08-06T02:23:27;6.83;;;2.13;;
74064;SDS011;62421;51.412;5.432;2023-08-06T02:28:28;5.82;;;2.45;;
74064;SDS011;62421;51.412;5.432;2023-08-06T02:30:54;7.88;;;2.05;;
74064;SDS011;62421;51.412;5.432;2023-08-06T02:33:19;8.07;;;2.20;;
74064;SDS011;62421;51.412;5.432;2023-08-06T02:35:45;10.90;;;2.40;;
74064;SDS011;62421;51.412;5.432;2023-08-06T02:38:10;4.67;;;1.83;;
74064;SDS011;62421;51.412;5.432;2023-08-06T02:40:35;11.18;;;2.13;;
74064;SDS011;62421;51.412;5.432;2023-08-06T02:43:01;5.03;;;2.40;;
74064;SDS011;62421;51.412;5.432;2023-08-06T02:45:26;5.20;;;1.63;;
74064;SDS011;62421;51.412;5.432;2023-08-06T02:47:51;11.33;;;2.67;;
74064;SDS011;62421;51.412;5.432;2023-08-06T02:50:16;9.30;;;2.10;;
74064;SDS011;62421;51.412;5.432;2023-08-06T02:52:42;7.23;;;2.50;;
74064;SDS011;62421;51.412;5.432;2023-08-06T02:55:07;8.43;;;2.40;;
74064;SDS011;62421;51.412;5.432;2023-08-06T02:57:33;6.87;;;2.70;;
74064;SDS011;62421;51.412;5.432;2023-08-06T02:59:58;8.40;;;2.88;;
74064;SDS011;62421;51.412;5.432;2023-08-06T03:02:23;6.20;;;2.78;;
74064;SDS011;62421;51.412;5.432;2023-08-06T03:04:49;6.70;;;3.05;;
74064;SDS011;62421;51.412;5.432;2023-08-06T03:07:14;6.80;;;3.17;;
74064;SDS011;62421;51.412;5.432;2023-08-06T03:09:39;6.97;;;2.77;;
74064;SDS011;62421;51.412;5.432;2023-08-06T03:12:05;7.47;;;2.50;;
74064;SDS011;62421;51.412;5.432;2023-08-06T03:14:30;6.73;;;3.20;;
74064;SDS011;62421;51.412;5.432;2023-08-06T03:16:56;6.77;;;2.20;;
74064;SDS011;62421;51.412;5.432;2023-08-06T03:19:21;8.75;;;3.22;;
74064;SDS011;62421;51.412;5.432;2023-08-06T03:21:46;8.13;;;3.30;;
74064;SDS011;62421;51.412;5.432;2023-08-06T03:24:13;6.50;;;2.83;;
74064;SDS011;62421;51.412;5.432;2023-08-06T03:26:38;10.15;;;3.33;;
74064;SDS011;62421;51.412;5.432;2023-08-06T03:29:04;7.20;;;2.67;;
74064;SDS011;62421;51.412;5.432;2023-08-06T03:31:29;9.13;;;3.17;;
74064;SDS011;62421;51.412;5.432;2023-08-06T03:33:54;7.13;;;3.50;;
74064;SDS011;62421;51.412;5.432;2023-08-06T03:36:19;8.63;;;3.93;;
74064;SDS011;62421;51.412;5.432;2023-08-06T03:38:45;11.10;;;4.43;;
74064;SDS011;62421;51.412;5.432;2023-08-06T03:41:10;10.30;;;3.67;;
74064;SDS011;62421;51.412;5.432;2023-08-06T03:43:36;9.33;;;3.33;;
74064;SDS011;62421;51.412;5.432;2023-08-06T03:46:01;9.63;;;4.03;;
74064;SDS011;62421;51.412;5.432;2023-08-06T03:48:26;10.10;;;4.13;;
74064;SDS011;62421;51.412;5.432;2023-08-06T03:50:51;9.83;;;3.43;;
74064;SDS011;62421;51.412;5.432;2023-08-06T03:53:17;9.50;;;3.53;;
74064;SDS011;62421;51.412;5.432;2023-08-06T03:55:42;8.93;;;4.05;;
74064;SDS011;62421;51.412;5.432;2023-08-06T03:58:07;8.63;;;3.70;;
74064;SDS011;62421;51.412;5.432;2023-08-06T04:00:33;9.03;;;3.30;;
74064;SDS011;62421;51.412;5.432;2023-08-06T04:02:58;9.07;;;3.97;;
74064;SDS011;62421;51.412;5.432;2023-08-06T04:05:23;10.13;;;3.50;;
74064;SDS011;62421;51.412;5.432;2023-08-06T04:07:49;11.63;;;3.80;;
74064;SDS011;62421;51.412;5.432;2023-08-06T04:10:14;9.03;;;4.20;;
74064;SDS011;62421;51.412;5.432;2023-08-06T04:12:40;8.67;;;3.60;;
74064;SDS011;62421;51.412;5.432;2023-08-06T04:15:05;9.15;;;4.00;;
74064;SDS011;62421;51.412;5.432;2023-08-06T04:17:31;8.90;;;3.80;;
74064;SDS011;62421;51.412;5.432;2023-08-06T04:19:56;9.03;;;4.00;;
74064;SDS011;62421;51.412;5.432;2023-08-06T04:22:25;9.18;;;3.42;;
74064;SDS011;62421;51.412;5.432;2023-08-06T04:24:51;7.53;;;3.60;;
74064;SDS011;62421;51.412;5.432;2023-08-06T04:27:17;7.63;;;3.55;;
74064;SDS011;62421;51.412;5.432;2023-08-06T04:29:44;10.13;;;3.77;;
74064;SDS011;62421;51.412;5.432;2023-08-06T04:32:09;9.90;;;3.40;;
74064;SDS011;62421;51.412;5.432;2023-08-06T04:34:35;8.48;;;3.38;;
74064;SDS011;62421;51.412;5.432;2023-08-06T04:37:02;10.23;;;3.60;;
74064;SDS011;62421;51.412;5.432;2023-08-06T04:39:28;6.82;;;3.92;;
74064;SDS011;62421;51.412;5.432;2023-08-06T04:41:55;9.77;;;3.90;;
74064;SDS011;62421;51.412;5.432;2023-08-06T04:44:23;7.53;;;3.63;;
74064;SDS011;62421;51.412;5.432;2023-08-06T04:46:49;12.93;;;3.80;;
74064;SDS011;62421;51.412;5.432;2023-08-06T04:49:14;9.60;;;3.88;;
74064;SDS011;62421;51.412;5.432;2023-08-06T04:51:40;13.55;;;3.95;;
74064;SDS011;62421;51.412;5.432;2023-08-06T04:54:05;8.70;;;3.90;;
74064;SDS011;62421;51.412;5.432;2023-08-06T04:56:30;8.03;;;3.53;;
74064;SDS011;62421;51.412;5.432;2023-08-06T04:58:57;7.75;;;3.70;;
74064;SDS011;62421;51.412;5.432;2023-08-06T05:01:24;8.50;;;3.40;;
74064;SDS011;62421;51.412;5.432;2023-08-06T05:03:50;13.38;;;3.30;;
74064;SDS011;62421;51.412;5.432;2023-08-06T05:06:15;8.30;;;3.83;;
74064;SDS011;62421;51.412;5.432;2023-08-06T05:08:40;10.20;;;3.83;;
74064;SDS011;62421;51.412;5.432;2023-08-06T05:11:06;5.30;;;3.10;;
74064;SDS011;62421;51.412;5.432;2023-08-06T05:13:31;7.23;;;3.20;;
74064;SDS011;62421;51.412;5.432;2023-08-06T05:15:56;8.27;;;3.83;;
74064;SDS011;62421;51.412;5.432;2023-08-06T05:18:21;7.17;;;3.63;;
74064;SDS011;62421;51.412;5.432;2023-08-06T05:20:47;7.38;;;3.65;;
74064;SDS011;62421;51.412;5.432;2023-08-06T05:23:12;7.03;;;4.15;;
74064;SDS011;62421;51.412;5.432;2023-08-06T05:25:38;9.93;;;3.70;;
74064;SDS011;62421;51.412;5.432;2023-08-06T05:28:03;7.47;;;4.33;;
74064;SDS011;62421;51.412;5.432;2023-08-06T05:30:29;8.27;;;3.73;;
74064;SDS011;62421;51.412;5.432;2023-08-06T05:32:54;7.22;;;3.60;;
74064;SDS011;62421;51.412;5.432;2023-08-06T05:35:20;10.03;;;4.07;;
74064;SDS011;62421;51.412;5.432;2023-08-06T05:37:46;7.28;;;4.43;;
74064;SDS011;62421;51.412;5.432;2023-08-06T05:40:11;10.60;;;4.53;;
74064;SDS011;62421;51.412;5.432;2023-08-06T05:42:37;9.60;;;5.28;;
74064;SDS011;62421;51.412;5.432;2023-08-06T05:45:02;10.13;;;4.07;;
74064;SDS011;62421;51.412;5.432;2023-08-06T05:47:28;11.57;;;4.70;;
74064;SDS011;62421;51.412;5.432;2023-08-06T05:49:53;10.27;;;4.40;;
74064;SDS011;62421;51.412;5.432;2023-08-06T05:52:18;10.53;;;4.27;;
74064;SDS011;62421;51.412;5.432;2023-08-06T05:54:44;7.67;;;4.50;;
74064;SDS011;62421;51.412;5.432;2023-08-06T05:57:09;7.80;;;4.50;;
74064;SDS011;62421;51.412;5.432;2023-08-06T05:59:34;11.93;;;4.70;;
74064;SDS011;62421;51.412;5.432;2023-08-06T06:02:00;8.43;;;4.87;;
74064;SDS011;62421;51.412;5.432;2023-08-06T06:04:25;7.97;;;4.20;;
74064;SDS011;62421;51.412;5.432;2023-08-06T06:06:50;7.67;;;3.90;;
74064;SDS011;62421;51.412;5.432;2023-08-06T06:09:16;8.57;;;5.27;;
74064;SDS011;62421;51.412;5.432;2023-08-06T06:11:41;10.63;;;4.40;;
74064;SDS011;62421;51.412;5.432;2023-08-06T06:14:06;8.47;;;4.30;;
74064;SDS011;62421;51.412;5.432;2023-08-06T06:16:32;8.10;;;4.17;;
74064;SDS011;62421;51.412;5.432;2023-08-06T06:18:57;8.27;;;3.90;;
74064;SDS011;62421;51.412;5.432;2023-08-06T06:21:23;8.30;;;4.32;;
74064;SDS011;62421;51.412;5.432;2023-08-06T06:23:49;8.38;;;3.90;;
74064;SDS011;62421;51.412;5.432;2023-08-06T06:26:16;7.88;;;4.32;;
74064;SDS011;62421;51.412;5.432;2023-08-06T06:28:42;9.18;;;4.15;;
74064;SDS011;62421;51.412;5.432;2023-08-06T06:31:07;8.97;;;4.03;;
74064;SDS011;62421;51.412;5.432;2023-08-06T06:33:32;9.50;;;4.17;;
74064;SDS011;62421;51.412;5.432;2023-08-06T06:35:58;8.07;;;4.30;;
74064;SDS011;62421;51.412;5.432;2023-08-06T06:38:23;6.93;;;3.43;;
74064;SDS011;62421;51.412;5.432;2023-08-06T06:40:57;10.60;;;3.57;;
74064;SDS011;62421;51.412;5.432;2023-08-06T06:43:23;6.65;;;4.10;;
74064;SDS011;62421;51.412;5.432;2023-08-06T06:45:52;7.80;;;3.67;;
74064;SDS011;62421;51.412;5.432;2023-08-06T06:48:19;7.93;;;2.40;;
74064;SDS011;62421;51.412;5.432;2023-08-06T06:50:46;4.75;;;1.83;;
74064;SDS011;62421;51.412;5.432;2023-08-06T06:53:13;3.70;;;1.30;;
74064;SDS011;62421;51.412;5.432;2023-08-06T06:55:38;4.88;;;1.50;;
74064;SDS011;62421;51.412;5.432;2023-08-06T06:58:03;2.53;;;1.40;;
74064;SDS011;62421;51.412;5.432;2023-08-06T07:00:29;4.27;;;2.13;;
74064;SDS011;62421;51.412;5.432;2023-08-06T07:02:54;4.37;;;1.97;;
74064;SDS011;62421;51.412;5.432;2023-08-06T07:05:19;4.50;;;2.00;;
74064;SDS011;62421;51.412;5.432;2023-08-06T07:07:45;3.80;;;2.20;;
74064;SDS011;62421;51.412;5.432;2023-08-06T07:10:10;5.27;;;2.30;;
74064;SDS011;62421;51.412;5.432;2023-08-06T07:12:36;4.03;;;1.95;;
74064;SDS011;62421;51.412;5.432;2023-08-06T07:15:02;5.07;;;2.13;;
74064;SDS011;62421;51.412;5.432;2023-08-06T07:17:29;4.35;;;2.38;;
74064;SDS011;62421;51.412;5.432;2023-08-06T07:19:55;3.33;;;2.03;;
74064;SDS011;62421;51.412;5.432;2023-08-06T07:22:20;5.47;;;3.13;;
74064;SDS011;62421;51.412;5.432;2023-08-06T07:24:45;5.80;;;2.57;;
74064;SDS011;62421;51.412;5.432;2023-08-06T07:27:11;4.17;;;2.17;;
74064;SDS011;62421;51.412;5.432;2023-08-06T07:29:36;5.27;;;2.10;;
74064;SDS011;62421;51.412;5.432;2023-08-06T07:32:01;8.30;;;3.57;;
74064;SDS011;62421;51.412;5.432;2023-08-06T07:34:27;5.07;;;2.90;;
74064;SDS011;62421;51.412;5.432;2023-08-06T07:36:52;7.17;;;2.93;;
74064;SDS011;62421;51.412;5.432;2023-08-06T07:39:18;6.73;;;3.33;;
74064;SDS011;62421;51.412;5.432;2023-08-06T07:41:43;7.18;;;3.55;;
74064;SDS011;62421;51.412;5.432;2023-08-06T07:44:10;8.10;;;3.92;;
74064;SDS011;62421;51.412;5.432;2023-08-06T07:46:36;7.83;;;4.03;;
74064;SDS011;62421;51.412;5.432;2023-08-06T07:49:01;15.73;;;4.10;;
74064;SDS011;62421;51.412;5.432;2023-08-06T07:51:27;7.18;;;3.42;;
74064;SDS011;62421;51.412;5.432;2023-08-06T07:53:52;8.17;;;3.90;;
74064;SDS011;62421;51.412;5.432;2023-08-06T07:56:18;7.13;;;3.87;;
74064;SDS011;62421;51.412;5.432;2023-08-06T07:58:43;10.07;;;3.33;;
74064;SDS011;62421;51.412;5.432;2023-08-06T08:01:08;7.87;;;4.20;;
74064;SDS011;62421;51.412;5.432;2023-08-06T08:03:34;9.83;;;4.63;;
74064;SDS011;62421;51.412;5.432;2023-08-06T08:05:59;15.77;;;5.87;;
74064;SDS011;62421;51.412;5.432;2023-08-06T08:08:25;11.02;;;5.50;;
74064;SDS011;62421;51.412;5.432;2023-08-06T08:10:50;7.87;;;4.33;;
74064;SDS011;62421;51.412;5.432;2023-08-06T08:13:16;12.10;;;5.13;;
74064;SDS011;62421;51.412;5.432;2023-08-06T08:15:41;11.23;;;4.33;;
74064;SDS011;62421;51.412;5.432;2023-08-06T08:18:07;9.38;;;3.72;;
74064;SDS011;62421;51.412;5.432;2023-08-06T08:20:32;8.63;;;3.75;;
74064;SDS011;62421;51.412;5.432;2023-08-06T08:23:00;9.93;;;3.80;;
74064;SDS011;62421;51.412;5.432;2023-08-06T08:25:25;8.50;;;3.35;;
74064;SDS011;62421;51.412;5.432;2023-08-06T08:27:51;8.20;;;3.78;;
74064;SDS011;62421;51.412;5.432;2023-08-06T08:30:17;9.40;;;3.47;;
74064;SDS011;62421;51.412;5.432;2023-08-06T08:32:42;7.00;;;3.10;;
74064;SDS011;62421;51.412;5.432;2023-08-06T08:35:08;9.73;;;2.80;;
74064;SDS011;62421;51.412;5.432;2023-08-06T08:37:33;10.10;;;3.45;;
74064;SDS011;62421;51.412;5.432;2023-08-06T08:39:58;8.68;;;3.28;;
74064;SDS011;62421;51.412;5.432;2023-08-06T08:42:25;7.57;;;3.10;;
74064;SDS011;62421;51.412;5.432;2023-08-06T08:44:51;10.27;;;2.97;;
74064;SDS011;62421;51.412;5.432;2023-08-06T08:47:21;9.23;;;3.30;;
74064;SDS011;62421;51.412;5.432;2023-08-06T08:49:47;10.48;;;3.38;;
74064;SDS011;62421;51.412;5.432;2023-08-06T08:52:14;12.45;;;3.80;;
74064;SDS011;62421;51.412;5.432;2023-08-06T08:54:42;9.57;;;3.88;;
74064;SDS011;62421;51.412;5.432;2023-08-06T08:57:08;10.15;;;3.40;;
74064;SDS011;62421;51.412;5.432;2023-08-06T08:59:34;11.43;;;3.73;;
74064;SDS011;62421;51.412;5.432;2023-08-06T09:02:00;14.50;;;3.73;;
74064;SDS011;62421;51.412;5.432;2023-08-06T09:04:26;13.73;;;4.07;;
74064;SDS011;62421;51.412;5.432;2023-08-06T09:06:54;10.97;;;3.83;;
74064;SDS011;62421;51.412;5.432;2023-08-06T09:09:26;12.52;;;3.97;;
74064;SDS011;62421;51.412;5.432;2023-08-06T09:11:58;11.35;;;3.80;;
74064;SDS011;62421;51.412;5.432;2023-08-06T09:14:26;11.60;;;4.25;;
74064;SDS011;62421;51.412;5.432;2023-08-06T09:16:52;16.00;;;3.73;;
74064;SDS011;62421;51.412;5.432;2023-08-06T09:19:17;13.53;;;3.20;;
74064;SDS011;62421;51.412;5.432;2023-08-06T09:21:43;7.57;;;2.93;;
74064;SDS011;62421;51.412;5.432;2023-08-06T09:24:14;9.93;;;3.30;;
74064;SDS011;62421;51.412;5.432;2023-08-06T09:26:41;8.88;;;3.03;;
74064;SDS011;62421;51.412;5.432;2023-08-06T09:29:08;12.27;;;4.27;;
74064;SDS011;62421;51.412;5.432;2023-08-06T09:31:43;10.82;;;2.95;;
74064;SDS011;62421;51.412;5.432;2023-08-06T09:36:50;12.50;;;3.97;;
74064;SDS011;62421;51.412;5.432;2023-08-06T09:39:18;12.80;;;4.20;;
74064;SDS011;62421;51.412;5.432;2023-08-06T09:41:44;15.67;;;3.80;;
74064;SDS011;62421;51.412;5.432;2023-08-06T09:44:19;15.27;;;4.20;;
74064;SDS011;62421;51.412;5.432;2023-08-06T09:46:50;14.57;;;4.22;;
74064;SDS011;62421;51.412;5.432;2023-08-06T09:49:20;11.18;;;3.20;;
74064;SDS011;62421;51.412;5.432;2023-08-06T09:51:50;9.70;;;3.50;;
74064;SDS011;62421;51.412;5.432;2023-08-06T09:54:18;12.77;;;3.13;;
74064;SDS011;62421;51.412;5.432;2023-08-06T09:56:44;14.77;;;3.53;;
74064;SDS011;62421;51.412;5.432;2023-08-06T09:59:09;16.70;;;4.23;;
74064;SDS011;62421;51.412;5.432;2023-08-06T10:01:38;16.73;;;4.00;;
74064;SDS011;62421;51.412;5.432;2023-08-06T10:04:03;12.57;;;3.70;;
74064;SDS011;62421;51.412;5.432;2023-08-06T10:06:32;14.80;;;4.50;;
74064;SDS011;62421;51.412;5.432;2023-08-06T10:08:59;14.82;;;3.67;;
74064;SDS011;62421;51.412;5.432;2023-08-06T10:11:25;14.40;;;3.80;;
74064;SDS011;62421;51.412;5.432;2023-08-06T10:13:51;17.60;;;4.43;;
74064;SDS011;62421;51.412;5.432;2023-08-06T10:16:22;17.23;;;5.55;;
74064;SDS011;62421;51.412;5.432;2023-08-06T10:18:48;16.85;;;4.93;;
74064;SDS011;62421;51.412;5.432;2023-08-06T10:21:14;12.20;;;4.38;;
74064;SDS011;62421;51.412;5.432;2023-08-06T10:23:41;16.50;;;5.17;;
74064;SDS011;62421;51.412;5.432;2023-08-06T10:26:07;20.33;;;4.22;;
74064;SDS011;62421;51.412;5.432;2023-08-06T10:28:39;13.23;;;4.43;;
74064;SDS011;62421;51.412;5.432;2023-08-06T10:31:05;16.38;;;4.40;;
74064;SDS011;62421;51.412;5.432;2023-08-06T10:33:40;16.52;;;4.28;;
74064;SDS011;62421;51.412;5.432;2023-08-06T10:36:10;15.10;;;3.70;;
74064;SDS011;62421;51.412;5.432;2023-08-06T10:38:43;13.13;;;3.15;;
74064;SDS011;62421;51.412;5.432;2023-08-06T10:41:14;8.37;;;3.13;;
74064;SDS011;62421;51.412;5.432;2023-08-06T10:44:06;13.27;;;3.60;;
74064;SDS011;62421;51.412;5.432;2023-08-06T10:46:35;16.30;;;3.80;;
74064;SDS011;62421;51.412;5.432;2023-08-06T10:49:01;12.65;;;3.50;;
74064;SDS011;62421;51.412;5.432;2023-08-06T10:51:28;15.93;;;3.63;;
74064;SDS011;62421;51.412;5.432;2023-08-06T10:53:53;21.00;;;4.40;;
74064;SDS011;62421;51.412;5.432;2023-08-06T10:56:19;18.73;;;5.50;;
74064;SDS011;62421;51.412;5.432;2023-08-06T10:58:47;23.52;;;5.03;;
74064;SDS011;62421;51.412;5.432;2023-08-06T11:01:13;15.82;;;6.38;;
74064;SDS011;62421;51.412;5.432;2023-08-06T11:03:39;21.27;;;5.13;;
74064;SDS011;62421;51.412;5.432;2023-08-06T11:06:06;15.73;;;4.90;;
74064;SDS011;62421;51.412;5.432;2023-08-06T11:08:46;14.50;;;4.07;;
74064;SDS011;62421;51.412;5.432;2023-08-06T11:11:14;17.30;;;4.30;;
74064;SDS011;62421;51.412;5.432;2023-08-06T11:13:41;25.80;;;4.43;;
74064;SDS011;62421;51.412;5.432;2023-08-06T11:16:13;14.55;;;3.40;;
74064;SDS011;62421;51.412;5.432;2023-08-06T11:18:40;15.38;;;4.30;;
74064;SDS011;62421;51.412;5.432;2023-08-06T11:21:07;15.63;;;3.43;;
74064;SDS011;62421;51.412;5.432;2023-08-06T11:23:33;14.60;;;3.42;;
74064;SDS011;62421;51.412;5.432;2023-08-06T11:25:59;15.43;;;3.33;;
74064;SDS011;62421;51.412;5.432;2023-08-06T11:28:25;23.97;;;4.53;;
74064;SDS011;62421;51.412;5.432;2023-08-06T11:30:50;9.57;;;2.77;;
74064;SDS011;62421;51.412;5.432;2023-08-06T11:33:22;11.60;;;3.20;;
74064;SDS011;62421;51.412;5.432;2023-08-06T11:35:50;15.23;;;3.50;;
74064;SDS011;62421;51.412;5.432;2023-08-06T11:38:16;14.40;;;4.07;;
74064;SDS011;62421;51.412;5.432;2023-08-06T11:40:43;20.42;;;3.38;;
74064;SDS011;62421;51.412;5.432;2023-08-06T11:43:10;19.35;;;3.40;;
74064;SDS011;62421;51.412;5.432;2023-08-06T11:45:35;14.73;;;3.30;;
74064;SDS011;62421;51.412;5.432;2023-08-06T11:48:01;13.10;;;2.70;;
74064;SDS011;62421;51.412;5.432;2023-08-06T11:50:27;11.33;;;2.77;;
74064;SDS011;62421;51.412;5.432;2023-08-06T11:52:52;10.43;;;2.83;;
74064;SDS011;62421;51.412;5.432;2023-08-06T11:55:23;9.23;;;2.65;;
74064;SDS011;62421;51.412;5.432;2023-08-06T11:57:49;11.45;;;3.97;;
74064;SDS011;62421;51.412;5.432;2023-08-06T12:00:14;10.97;;;2.60;;
74064;SDS011;62421;51.412;5.432;2023-08-06T12:02:42;12.77;;;3.40;;
74064;SDS011;62421;51.412;5.432;2023-08-06T12:05:14;18.42;;;3.05;;
74064;SDS011;62421;51.412;5.432;2023-08-06T12:07:42;15.85;;;3.92;;
74064;SDS011;62421;51.412;5.432;2023-08-06T12:10:08;10.13;;;3.50;;
74064;SDS011;62421;51.412;5.432;2023-08-06T12:12:34;11.65;;;3.47;;
74064;SDS011;62421;51.412;5.432;2023-08-06T12:15:00;11.05;;;2.50;;
74064;SDS011;62421;51.412;5.432;2023-08-06T12:17:26;12.60;;;2.03;;
74064;SDS011;62421;51.412;5.432;2023-08-06T12:19:52;6.73;;;2.00;;
74064;SDS011;62421;51.412;5.432;2023-08-06T12:22:17;8.33;;;1.80;;
74064;SDS011;62421;51.412;5.432;2023-08-06T12:24:43;9.68;;;2.53;;
74064;SDS011;62421;51.412;5.432;2023-08-06T12:27:09;10.00;;;1.80;;
74064;SDS011;62421;51.412;5.432;2023-08-06T12:29:35;11.13;;;2.00;;
74064;SDS011;62421;51.412;5.432;2023-08-06T12:32:01;8.75;;;2.00;;
74064;SDS011;62421;51.412;5.432;2023-08-06T12:34:28;8.98;;;2.17;;
74064;SDS011;62421;51.412;5.432;2023-08-06T12:36:54;9.47;;;1.73;;
74064;SDS011;62421;51.412;5.432;2023-08-06T12:39:19;8.23;;;2.30;;
74064;SDS011;62421;51.412;5.432;2023-08-06T12:41:44;9.23;;;1.93;;
74064;SDS011;62421;51.412;5.432;2023-08-06T12:44:11;8.40;;;1.77;;
74064;SDS011;62421;51.412;5.432;2023-08-06T12:46:37;10.52;;;2.55;;
74064;SDS011;62421;51.412;5.432;2023-08-06T12:49:02;8.40;;;1.80;;
74064;SDS011;62421;51.412;5.432;2023-08-06T12:51:27;9.70;;;2.13;;
74064;SDS011;62421;51.412;5.432;2023-08-06T12:53:52;9.13;;;1.80;;
74064;SDS011;62421;51.412;5.432;2023-08-06T12:56:18;6.77;;;1.57;;
74064;SDS011;62421;51.412;5.432;2023-08-06T12:58:43;10.63;;;1.80;;
74064;SDS011;62421;51.412;5.432;2023-08-06T13:01:09;10.43;;;1.73;;
74064;SDS011;62421;51.412;5.432;2023-08-06T13:03:34;9.03;;;1.60;;
74064;SDS011;62421;51.412;5.432;2023-08-06T13:06:00;5.87;;;1.47;;
74064;SDS011;62421;51.412;5.432;2023-08-06T13:08:25;10.80;;;1.40;;
74064;SDS011;62421;51.412;5.432;2023-08-06T13:10:50;7.57;;;1.43;;
74064;SDS011;62421;51.412;5.432;2023-08-06T13:13:16;8.27;;;1.50;;
74064;SDS011;62421;51.412;5.432;2023-08-06T13:15:41;12.10;;;1.53;;
74064;SDS011;62421;51.412;5.432;2023-08-06T13:18:06;8.63;;;1.77;;
74064;SDS011;62421;51.412;5.432;2023-08-06T13:20:32;13.80;;;2.53;;
74064;SDS011;62421;51.412;5.432;2023-08-06T13:22:58;9.30;;;1.73;;
74064;SDS011;62421;51.412;5.432;2023-08-06T13:25:23;9.10;;;1.70;;
74064;SDS011;62421;51.412;5.432;2023-08-06T13:27:50;9.83;;;1.50;;
74064;SDS011;62421;51.412;5.432;2023-08-06T13:30:15;8.80;;;1.70;;
74064;SDS011;62421;51.412;5.432;2023-08-06T13:32:42;15.57;;;2.40;;
74064;SDS011;62421;51.412;5.432;2023-08-06T13:35:08;9.13;;;1.98;;
74064;SDS011;62421;51.412;5.432;2023-08-06T13:37:34;10.83;;;1.43;;
74064;SDS011;62421;51.412;5.432;2023-08-06T13:39:59;13.00;;;1.67;;
74064;SDS011;62421;51.412;5.432;2023-08-06T13:42:24;9.40;;;1.40;;
74064;SDS011;62421;51.412;5.432;2023-08-06T13:44:49;7.93;;;1.37;;
74064;SDS011;62421;51.412;5.432;2023-08-06T13:47:15;7.53;;;1.13;;
74064;SDS011;62421;51.412;5.432;2023-08-06T13:49:40;9.75;;;1.33;;
74064;SDS011;62421;51.412;5.432;2023-08-06T13:52:05;5.90;;;1.08;;
74064;SDS011;62421;51.412;5.432;2023-08-06T13:54:31;8.65;;;1.92;;
74064;SDS011;62421;51.412;5.432;2023-08-06T13:56:57;8.03;;;1.73;;
74064;SDS011;62421;51.412;5.432;2023-08-06T13:59:22;8.23;;;1.70;;
74064;SDS011;62421;51.412;5.432;2023-08-06T14:01:49;4.40;;;1.45;;
74064;SDS011;62421;51.412;5.432;2023-08-06T14:04:14;8.70;;;1.53;;
74064;SDS011;62421;51.412;5.432;2023-08-06T14:06:40;6.70;;;1.47;;
74064;SDS011;62421;51.412;5.432;2023-08-06T14:09:05;7.15;;;1.52;;
74064;SDS011;62421;51.412;5.432;2023-08-06T14:11:30;10.37;;;1.50;;
74064;SDS011;62421;51.412;5.432;2023-08-06T14:13:56;8.27;;;1.37;;
74064;SDS011;62421;51.412;5.432;2023-08-06T14:16:21;7.40;;;1.53;;
74064;SDS011;62421;51.412;5.432;2023-08-06T14:18:46;9.23;;;1.47;;
74064;SDS011;62421;51.412;5.432;2023-08-06T14:21:12;6.47;;;1.42;;
74064;SDS011;62421;51.412;5.432;2023-08-06T14:23:38;7.00;;;1.80;;
74064;SDS011;62421;51.412;5.432;2023-08-06T14:26:03;9.40;;;1.73;;
74064;SDS011;62421;51.412;5.432;2023-08-06T14:28:28;6.73;;;1.60;;
74064;SDS011;62421;51.412;5.432;2023-08-06T14:30:54;9.50;;;1.53;;
74064;SDS011;62421;51.412;5.432;2023-08-06T14:33:19;6.53;;;1.27;;
74064;SDS011;62421;51.412;5.432;2023-08-06T14:35:44;5.80;;;1.90;;
74064;SDS011;62421;51.412;5.432;2023-08-06T14:38:10;6.18;;;1.83;;
74064;SDS011;62421;51.412;5.432;2023-08-06T14:40:35;7.55;;;2.47;;
74064;SDS011;62421;51.412;5.432;2023-08-06T14:43:03;7.30;;;1.63;;
74064;SDS011;62421;51.412;5.432;2023-08-06T14:45:30;11.20;;;1.50;;